Seaspan Chiwan — VRBH3 — position and weather

sailwx.info

Track history (hours):
 
Tides and Currents Weather Stations Pressure Air Temp Water Temp Dewpoint Dewpoint Depression Visibility Wind Speed Wind Dir Waves Ship Positions

Seaspan Chiwan

Last reported at 2016-Sep-30 06:34 UTC. Time now 2016-Sep-30 08:20 UTC.
Position N 32°44' W 117°47'.

Length 260 m; draft 12.7 m.

Type: Cargo ship. MMSI: 477014500.

Date/timePositionNaut miles runAvg speedWind from/ knotsBaromVisibWave heightAir tempDewpointWater temp
2016-Sep-30 06:34N 32°44' W 117°47'4214.0
2016-Sep-30 03:33N 32°03' W 117°34'1414.2
2016-Sep-30 02:33N 31°49' W 117°30'3913.2
2016-Sep-29 23:34N 31°11' W 117°18'3316.4
2016-Sep-29 21:34N 30°40' W 117°08'1616.4
2016-Sep-29 20:34N 30°24' W 117°04'1616.4
2016-Sep-29 19:33N 30°08' W 116°59'5016.6
2016-Sep-29 16:34N 29°20' W 116°44'1716.8
2016-Sep-29 15:33N 29°03' W 116°39'  
2016-Sep-20 17:33N 09°11' W 079°52'7 2.4
2016-Sep-20 14:34N 09°17' W 079°55'2 1.7
2016-Sep-20 13:34N 09°19' W 079°55'10 3.5
2016-Sep-20 10:33N 09°30' W 079°55'0 0.0
2016-Sep-20 08:27N 09°29' W 079°55'0 0.0
2016-Sep-20 07:28N 09°29' W 079°55'  
Track history (hours):
 
Tides and Currents Weather Stations Pressure Air Temp Water Temp Dewpoint Dewpoint Depression Visibility Wind Speed Wind Dir Waves Ship Positions

Seaspan Chiwan

Last reported at 2016-Sep-30 06:34 UTC. Time now 2016-Sep-30 08:20 UTC.
Position N 32°44' W 117°47'.

Length 260 m; draft 12.7 m.

Type: Cargo ship. MMSI: 477014500.

Date/timePositionNaut miles runAvg speedWind from/ knotsBaromVisibWave heightAir tempDewpointWater temp
2016-Sep-30 06:34N 32°44' W 117°47'4214.0
2016-Sep-30 03:33N 32°03' W 117°34'1414.2
2016-Sep-30 02:33N 31°49' W 117°30'3913.2
2016-Sep-29 23:34N 31°11' W 117°18'3316.4
2016-Sep-29 21:34N 30°40' W 117°08'1616.4
2016-Sep-29 20:34N 30°24' W 117°04'1616.4
2016-Sep-29 19:33N 30°08' W 116°59'5016.6
2016-Sep-29 16:34N 29°20' W 116°44'1716.8
2016-Sep-29 15:33N 29°03' W 116°39'  
2016-Sep-20 17:33N 09°11' W 079°52'7 2.4
2016-Sep-20 14:34N 09°17' W 079°55'2 1.7
2016-Sep-20 13:34N 09°19' W 079°55'10 3.5
2016-Sep-20 10:33N 09°30' W 079°55'0 0.0
2016-Sep-20 08:27N 09°29' W 079°55'0 0.0
2016-Sep-20 07:28N 09°29' W 079°55'  

Dump ship's entire track history